Time;durP1;ratioP1;P1;durP2;ratioP2;P2;SDS_P1;SDS_P2;PMS_P1;PMS_P2;Temp;Humidity;BMP_temperature;BMP_pressure;BME280_temperature;BME280_humidity;BME280_pressure;Samples;Min_cycle;Max_cycle;Signal;HPM_P1;HPM_P2
2023/07/06 00:01:57;;;;;;;1.47;1.37;;;;;;;;;;5039732;28;20207;-69
2023/07/06 00:04:25;;;;;;;1.30;1.20;;;;;;;;;;5038231;28;20210;-68
2023/07/06 00:06:55;;;;;;;2.70;1.37;;;;;;;;;;5037454;28;20306;-69
2023/07/06 00:09:23;;;;;;;1.40;1.20;;;;;;;;;;5037637;28;20218;-69
2023/07/06 00:11:52;;;;;;;1.63;1.30;;;;;;;;;;5045470;28;20234;-68
2023/07/06 00:14:24;;;;;;;1.10;1.00;;;;;;;;;;5057077;28;20212;-68
2023/07/06 00:17:07;;;;;;;2.03;1.20;;;;;;;;;;5057556;28;20222;-68
2023/07/06 00:19:35;;;;;;;1.63;1.50;;;;;;;;;;5057328;28;20648;-68
2023/07/06 00:22:04;;;;;;;1.60;1.50;;;;;;;;;;5057561;28;20208;-68
2023/07/06 00:24:32;;;;;;;1.50;1.40;;;;;;;;;;5057435;28;20292;-68
2023/07/06 00:26:59;;;;;;;3.00;1.40;;;;;;;;;;5057680;28;20296;-68
2023/07/06 00:29:33;;;;;;;2.57;1.53;;;;;;;;;;5057268;28;20213;-68
2023/07/06 00:32:15;;;;;;;1.97;1.60;;;;;;;;;;5057300;28;20296;-69
2023/07/06 00:34:44;;;;;;;1.67;1.27;;;;;;;;;;5043910;28;20209;-69
2023/07/06 00:37:14;;;;;;;2.83;1.60;;;;;;;;;;5037501;28;20242;-68
2023/07/06 00:39:43;;;;;;;1.60;1.47;;;;;;;;;;5037920;28;20204;-68
2023/07/06 00:42:15;;;;;;;1.50;1.40;;;;;;;;;;5037568;28;20232;-68
2023/07/06 00:44:47;;;;;;;2.40;1.70;;;;;;;;;;5037182;28;20214;-68
2023/07/06 00:47:15;;;;;;;3.03;2.20;;;;;;;;;;5037666;28;20240;-68
2023/07/06 00:49:43;;;;;;;4.63;2.50;;;;;;;;;;5037464;28;20245;-66
2023/07/06 00:52:11;;;;;;;4.53;2.70;;;;;;;;;;5037302;28;20235;-68
2023/07/06 00:54:42;;;;;;;2.63;2.43;;;;;;;;;;5036928;28;20215;-66
2023/07/06 00:57:11;;;;;;;3.57;2.43;;;;;;;;;;5037195;28;20239;-66
2023/07/06 00:59:40;;;;;;;4.73;3.00;;;;;;;;;;5040355;28;20208;-65
2023/07/06 01:02:09;;;;;;;7.03;2.30;;;;;;;;;;5037584;28;20204;-67
2023/07/06 01:04:37;;;;;;;5.53;2.50;;;;;;;;;;5036974;28;20211;-66
2023/07/06 01:07:06;;;;;;;5.00;2.40;;;;;;;;;;5037221;28;20227;-66
2023/07/06 01:09:34;;;;;;;2.77;2.57;;;;;;;;;;5043605;28;20218;-66
2023/07/06 01:12:03;;;;;;;3.33;2.53;;;;;;;;;;5056659;28;20585;-66
2023/07/06 01:14:32;;;;;;;2.37;2.13;;;;;;;;;;5057119;28;20657;-67
2023/07/06 01:17:04;;;;;;;2.27;2.07;;;;;;;;;;5057102;28;20207;-66
2023/07/06 01:19:50;;;;;;;3.33;2.20;;;;;;;;;;5056788;28;20207;-66
2023/07/06 01:22:24;;;;;;;3.20;2.00;;;;;;;;;;5056701;28;20207;-66
2023/07/06 01:24:59;;;;;;;2.80;1.73;;;;;;;;;;5056853;28;20203;-67
2023/07/06 01:27:37;;;;;;;2.93;1.93;;;;;;;;;;5059191;28;20611;-66
2023/07/06 01:30:13;;;;;;;2.27;1.80;;;;;;;;;;5060411;28;20233;-66
2023/07/06 01:32:44;;;;;;;3.40;1.97;;;;;;;;;;5056109;28;20227;-66
2023/07/06 01:35:16;;;;;;;2.43;2.10;;;;;;;;;;5057311;28;20274;-67
2023/07/06 01:37:45;;;;;;;2.10;1.83;;;;;;;;;;5060049;28;20214;-66
2023/07/06 01:40:13;;;;;;;2.87;1.80;;;;;;;;;;5055380;28;20266;-66
2023/07/06 01:42:42;;;;;;;5.23;1.67;;;;;;;;;;5040410;28;20203;-67
2023/07/06 01:45:12;;;;;;;3.10;2.00;;;;;;;;;;5040150;28;20270;-67
2023/07/06 01:47:41;;;;;;;3.37;2.40;;;;;;;;;;5040253;28;20204;-66
2023/07/06 01:50:12;;;;;;;3.33;1.97;;;;;;;;;;5040093;28;20238;-66
2023/07/06 01:53:03;;;;;;;3.40;2.00;;;;;;;;;;5039950;28;20227;-67
2023/07/06 01:55:36;;;;;;;2.27;2.00;;;;;;;;;;5029907;28;20212;-67
2023/07/06 01:58:07;;;;;;;2.87;2.07;;;;;;;;;;5039775;28;20207;-67
2023/07/06 02:00:36;;;;;;;2.60;1.90;;;;;;;;;;5043744;28;20709;-65
2023/07/06 02:03:06;;;;;;;2.27;1.93;;;;;;;;;;5039634;28;20212;-66
2023/07/06 02:05:38;;;;;;;2.77;1.93;;;;;;;;;;5039903;28;20216;-65
2023/07/06 02:08:06;;;;;;;2.17;1.67;;;;;;;;;;5039895;28;20297;-65
2023/07/06 02:10:34;;;;;;;5.57;1.87;;;;;;;;;;5039359;28;20316;-66
2023/07/06 02:13:03;;;;;;;2.13;1.93;;;;;;;;;;5057284;28;20234;-65
2023/07/06 02:15:31;;;;;;;2.27;1.70;;;;;;;;;;5059345;28;20216;-66
2023/07/06 02:18:01;;;;;;;2.50;2.30;;;;;;;;;;5059408;28;20550;-67
2023/07/06 02:20:30;;;;;;;4.80;1.83;;;;;;;;;;5059189;28;20324;-65
2023/07/06 02:23:00;;;;;;;3.03;1.80;;;;;;;;;;5059015;28;20547;-65
2023/07/06 02:25:27;;;;;;;3.30;1.90;;;;;;;;;;5059368;28;20298;-66
2023/07/06 02:27:55;;;;;;;3.10;1.80;;;;;;;;;;5059477;28;20295;-66
2023/07/06 02:30:23;;;;;;;3.13;1.90;;;;;;;;;;5059234;28;20224;-65
2023/07/06 02:32:51;;;;;;;5.40;1.80;;;;;;;;;;5059125;28;20252;-66
2023/07/06 02:35:19;;;;;;;3.63;1.73;;;;;;;;;;5041365;28;20212;-67
2023/07/06 02:37:46;;;;;;;2.87;2.00;;;;;;;;;;5038827;28;20217;-66
2023/07/06 02:40:17;;;;;;;3.93;2.77;;;;;;;;;;5039499;28;20672;-65
2023/07/06 02:42:45;;;;;;;3.30;2.30;;;;;;;;;;5039000;28;20269;-65
2023/07/06 02:45:13;;;;;;;1.80;1.60;;;;;;;;;;5038872;28;20218;-66
2023/07/06 02:47:41;;;;;;;1.97;1.77;;;;;;;;;;5039186;28;20221;-66
2023/07/06 02:50:11;;;;;;;1.87;1.77;;;;;;;;;;5045917;28;20280;-65
2023/07/06 02:52:39;;;;;;;3.80;2.13;;;;;;;;;;5058502;28;20597;-65
2023/07/06 02:55:09;;;;;;;2.90;2.23;;;;;;;;;;5058920;28;20220;-65
2023/07/06 02:57:39;;;;;;;4.63;3.10;;;;;;;;;;5058698;28;20211;-65
2023/07/06 03:00:12;;;;;;;2.17;1.97;;;;;;;;;;5049010;28;20231;-65
2023/07/06 03:02:39;;;;;;;2.73;2.47;;;;;;;;;;5038757;28;20651;-65
2023/07/06 03:05:07;;;;;;;2.53;2.33;;;;;;;;;;5038830;28;20266;-65
2023/07/06 03:07:35;;;;;;;4.50;2.20;;;;;;;;;;5038284;28;20208;-65
2023/07/06 03:10:03;;;;;;;2.70;2.33;;;;;;;;;;5038167;28;20278;-65
2023/07/06 03:12:36;;;;;;;2.23;2.03;;;;;;;;;;5051828;28;20231;-65
2023/07/06 03:15:06;;;;;;;2.83;2.13;;;;;;;;;;5058530;28;20241;-65
2023/07/06 03:17:34;;;;;;;4.87;2.30;;;;;;;;;;5058249;28;20210;-65
2023/07/06 03:20:04;;;;;;;3.03;1.90;;;;;;;;;;5058461;28;20227;-65
2023/07/06 03:22:33;;;;;;;2.87;1.97;;;;;;;;;;5058215;28;20202;-65
2023/07/06 03:25:01;;;;;;;2.83;2.33;;;;;;;;;;5058217;28;20215;-65
2023/07/06 03:27:28;;;;;;;3.03;2.00;;;;;;;;;;5058078;28;20211;-65
2023/07/06 03:29:56;;;;;;;1.70;1.60;;;;;;;;;;5058200;28;20317;-65
2023/07/06 03:32:25;;;;;;;2.03;1.47;;;;;;;;;;5057556;28;20235;-65
2023/07/06 03:34:53;;;;;;;3.13;1.57;;;;;;;;;;5052473;28;20211;-65
2023/07/06 03:37:21;;;;;;;1.40;1.30;;;;;;;;;;5058137;28;20218;-65
2023/07/06 03:39:49;;;;;;;2.83;1.53;;;;;;;;;;5057560;28;20658;-65
2023/07/06 03:42:17;;;;;;;2.73;1.50;;;;;;;;;;5043252;28;20220;-65
2023/07/06 03:44:45;;;;;;;1.63;1.20;;;;;;;;;;5038089;28;20767;-65
2023/07/06 03:47:14;;;;;;;1.70;1.37;;;;;;;;;;5038028;28;20211;-65
2023/07/06 03:49:43;;;;;;;1.63;1.47;;;;;;;;;;5037447;28;20667;-65
2023/07/06 03:52:16;;;;;;;2.23;1.23;;;;;;;;;;5037858;28;20216;-67
2023/07/06 03:54:44;;;;;;;3.23;1.47;;;;;;;;;;5050047;28;20219;-67
2023/07/06 03:57:16;;;;;;;3.83;1.63;;;;;;;;;;5066754;28;20228;-67
2023/07/06 03:59:43;;;;;;;2.80;1.23;;;;;;;;;;5061739;28;20260;-67
2023/07/06 04:02:12;;;;;;;4.93;1.40;;;;;;;;;;5065221;28;20217;-67
2023/07/06 04:04:41;;;;;;;2.10;1.30;;;;;;;;;;5063829;28;20196;-66
2023/07/06 04:07:10;;;;;;;1.47;1.30;;;;;;;;;;5067687;28;20226;-66
2023/07/06 04:09:38;;;;;;;2.40;1.37;;;;;;;;;;5066066;28;20694;-67
2023/07/06 04:12:07;;;;;;;3.87;1.97;;;;;;;;;;5064300;28;20256;-68
2023/07/06 04:14:35;;;;;;;2.63;1.40;;;;;;;;;;5067590;28;20263;-68
2023/07/06 04:17:03;;;;;;;2.70;2.00;;;;;;;;;;5067981;28;20216;-68
2023/07/06 04:19:31;;;;;;;4.87;2.00;;;;;;;;;;5068128;28;20203;-69
2023/07/06 04:22:00;;;;;;;5.87;1.90;;;;;;;;;;5065229;28;20248;-68
2023/07/06 04:24:31;;;;;;;2.80;1.40;;;;;;;;;;5063508;28;20283;-68
2023/07/06 04:27:00;;;;;;;2.23;1.73;;;;;;;;;;5062045;28;20246;-68
2023/07/06 04:29:29;;;;;;;2.83;1.20;;;;;;;;;;5064994;28;20205;-69
2023/07/06 04:31:57;;;;;;;2.13;1.00;;;;;;;;;;5066302;28;20209;-69
2023/07/06 04:34:25;;;;;;;1.03;1.03;;;;;;;;;;5063800;28;20257;-69
2023/07/06 04:36:53;;;;;;;2.50;1.80;;;;;;;;;;5062368;28;20200;-69
2023/07/06 04:39:20;;;;;;;3.33;1.57;;;;;;;;;;5053470;28;20254;-68
2023/07/06 04:41:51;;;;;;;1.57;1.10;;;;;;;;;;5059549;28;20219;-68
2023/07/06 04:44:19;;;;;;;1.40;1.10;;;;;;;;;;5064655;28;20204;-68
2023/07/06 04:46:47;;;;;;;3.10;1.30;;;;;;;;;;5066384;28;20198;-68
2023/07/06 04:49:15;;;;;;;1.10;1.07;;;;;;;;;;5060003;28;20552;-67
2023/07/06 04:51:42;;;;;;;3.80;1.20;;;;;;;;;;5050480;28;20230;-66
2023/07/06 04:54:13;;;;;;;2.17;1.20;;;;;;;;;;5037683;28;20588;-66
2023/07/06 04:56:41;;;;;;;1.30;1.23;;;;;;;;;;5046530;28;20211;-66
2023/07/06 04:59:10;;;;;;;1.37;1.07;;;;;;;;;;5061905;28;20601;-67
2023/07/06 05:01:38;;;;;;;2.40;1.30;;;;;;;;;;5051479;28;20772;-66
2023/07/06 05:04:09;;;;;;;2.70;1.20;;;;;;;;;;5041198;28;20200;-66
2023/07/06 05:06:37;;;;;;;3.90;1.30;;;;;;;;;;5040971;28;20211;-67
2023/07/06 05:09:05;;;;;;;3.37;1.50;;;;;;;;;;5040756;28;20687;-67
2023/07/06 05:11:32;;;;;;;1.63;1.40;;;;;;;;;;5045984;28;20222;-68
2023/07/06 05:14:00;;;;;;;1.43;1.33;;;;;;;;;;5060576;28;20231;-68
2023/07/06 05:16:29;;;;;;;2.90;1.30;;;;;;;;;;5060892;28;20219;-65
2023/07/06 05:18:57;;;;;;;1.23;1.10;;;;;;;;;;5060587;28;20720;-65
2023/07/06 05:21:25;;;;;;;13.10;1.77;;;;;;;;;;5060465;28;20232;-66
2023/07/06 05:23:53;;;;;;;2.07;1.70;;;;;;;;;;5056773;28;20201;-69
2023/07/06 05:26:21;;;;;;;5.13;2.60;;;;;;;;;;5054019;28;20235;-71
2023/07/06 05:28:50;;;;;;;5.97;2.10;;;;;;;;;;5052311;28;20208;-72
2023/07/06 05:31:18;;;;;;;2.13;1.80;;;;;;;;;;5047602;28;20223;-67
2023/07/06 05:33:48;;;;;;;3.77;1.60;;;;;;;;;;5058732;28;20720;-70
2023/07/06 05:36:16;;;;;;;2.17;1.50;;;;;;;;;;5044256;28;20296;-68
2023/07/06 05:38:44;;;;;;;1.53;1.43;;;;;;;;;;5048238;28;20207;-68
2023/07/06 05:41:12;;;;;;;3.60;1.40;;;;;;;;;;5055860;28;20224;-75
2023/07/06 05:43:40;;;;;;;1.70;1.33;;;;;;;;;;5050265;28;20287;-74
2023/07/06 05:46:07;;;;;;;2.03;1.63;;;;;;;;;;5040299;28;20200;-73
2023/07/06 05:48:35;;;;;;;2.70;1.57;;;;;;;;;;5039979;28;20667;-73
2023/07/06 05:51:04;;;;;;;4.57;1.77;;;;;;;;;;5051250;28;20315;-75
2023/07/06 05:53:32;;;;;;;6.23;3.93;;;;;;;;;;5049634;28;20207;-77
2023/07/06 05:56:00;;;;;;;3.87;2.30;;;;;;;;;;5051760;28;20317;-75
2023/07/06 05:58:28;;;;;;;4.10;1.57;;;;;;;;;;5045714;28;20203;-63
2023/07/06 06:00:57;;;;;;;1.63;1.53;;;;;;;;;;5053707;28;20224;-63
2023/07/06 06:03:24;;;;;;;1.57;1.47;;;;;;;;;;5046581;28;20304;-64
2023/07/06 06:05:53;;;;;;;3.13;1.50;;;;;;;;;;5039046;28;20216;-63
2023/07/06 06:08:24;;;;;;;7.07;2.07;;;;;;;;;;5046067;28;20239;-63
2023/07/06 06:10:52;;;;;;;4.30;1.63;;;;;;;;;;5059641;28;20227;-63
2023/07/06 06:13:24;;;;;;;3.73;1.50;;;;;;;;;;5038531;28;20239;-64
2023/07/06 06:15:52;;;;;;;2.83;1.30;;;;;;;;;;5044195;28;20310;-64
2023/07/06 06:18:21;;;;;;;2.00;1.53;;;;;;;;;;5043478;28;20207;-64
2023/07/06 06:20:50;;;;;;;1.50;1.40;;;;;;;;;;5050699;28;20237;-63
2023/07/06 06:23:20;;;;;;;2.23;1.70;;;;;;;;;;5058559;28;20218;-64
2023/07/06 06:25:49;;;;;;;3.67;1.33;;;;;;;;;;5059150;28;20654;-64
2023/07/06 06:28:17;;;;;;;2.00;1.80;;;;;;;;;;5059111;28;20215;-63
2023/07/06 06:30:46;;;;;;;1.53;1.37;;;;;;;;;;5059037;28;20227;-64
2023/07/06 06:33:14;;;;;;;2.60;1.83;;;;;;;;;;5044043;28;20318;-63
2023/07/06 06:35:42;;;;;;;1.80;1.70;;;;;;;;;;5038883;28;20259;-63
2023/07/06 06:38:10;;;;;;;1.93;1.60;;;;;;;;;;5048647;28;20195;-63
2023/07/06 06:40:38;;;;;;;1.50;1.40;;;;;;;;;;5056357;28;20223;-63
2023/07/06 06:43:07;;;;;;;3.40;1.70;;;;;;;;;;5053323;28;20325;-65
2023/07/06 06:45:35;;;;;;;2.27;1.77;;;;;;;;;;5046235;28;20579;-64
2023/07/06 06:48:04;;;;;;;3.70;1.80;;;;;;;;;;5038909;28;20265;-64
2023/07/06 06:50:32;;;;;;;3.43;1.80;;;;;;;;;;5038639;28;20291;-63
2023/07/06 06:53:00;;;;;;;1.87;1.77;;;;;;;;;;5045160;28;20213;-63
2023/07/06 06:55:28;;;;;;;3.03;1.70;;;;;;;;;;5057432;28;20258;-64
2023/07/06 06:57:56;;;;;;;1.83;1.70;;;;;;;;;;5048502;28;20285;-64
2023/07/06 07:00:26;;;;;;;3.17;1.60;;;;;;;;;;5054495;28;20281;-62
2023/07/06 07:02:54;;;;;;;2.60;1.70;;;;;;;;;;5052633;28;20277;-63
2023/07/06 07:05:22;;;;;;;2.00;1.80;;;;;;;;;;5044775;28;20218;-63
2023/07/06 07:07:50;;;;;;;4.60;2.20;;;;;;;;;;5048568;28;20207;-63
2023/07/06 07:10:19;;;;;;;2.70;2.07;;;;;;;;;;5038203;28;20242;-64
2023/07/06 07:12:47;;;;;;;5.23;2.33;;;;;;;;;;5047757;28;20215;-64
2023/07/06 07:15:15;;;;;;;2.57;2.07;;;;;;;;;;5038247;28;20238;-64
2023/07/06 07:17:45;;;;;;;3.00;2.00;;;;;;;;;;5038001;28;20217;-63
2023/07/06 07:20:14;;;;;;;3.57;1.93;;;;;;;;;;5046028;28;20215;-65
2023/07/06 07:22:42;;;;;;;5.30;2.47;;;;;;;;;;5057457;28;20269;-63
2023/07/06 07:25:10;;;;;;;2.57;2.03;;;;;;;;;;5048256;28;20199;-63
2023/07/06 07:27:38;;;;;;;4.70;2.00;;;;;;;;;;5055842;28;20204;-63
2023/07/06 07:30:06;;;;;;;3.80;2.43;;;;;;;;;;5051272;28;20235;-65
2023/07/06 07:32:34;;;;;;;2.47;1.83;;;;;;;;;;5051536;28;20239;-64
2023/07/06 07:35:03;;;;;;;3.27;2.60;;;;;;;;;;5056014;28;20225;-66
2023/07/06 07:37:31;;;;;;;3.63;2.30;;;;;;;;;;5047816;28;20338;-66
2023/07/06 07:40:00;;;;;;;3.53;2.17;;;;;;;;;;5056721;28;20261;-66
2023/07/06 07:42:30;;;;;;;2.53;2.03;;;;;;;;;;5057916;28;20211;-64
2023/07/06 07:44:58;;;;;;;3.43;2.03;;;;;;;;;;5056298;28;20224;-64
2023/07/06 07:47:27;;;;;;;4.23;1.93;;;;;;;;;;5053741;28;20206;-66
2023/07/06 07:49:55;;;;;;;4.13;2.50;;;;;;;;;;5040977;28;20231;-64
2023/07/06 07:52:25;;;;;;;3.60;2.17;;;;;;;;;;5056738;28;20205;-64
2023/07/06 07:54:53;;;;;;;3.60;2.47;;;;;;;;;;5065641;28;20638;-65
2023/07/06 07:57:21;;;;;;;6.87;2.57;;;;;;;;;;5064037;28;20210;-65
2023/07/06 07:59:50;;;;;;;3.10;2.30;;;;;;;;;;5065113;28;20312;-66
2023/07/06 08:02:18;;;;;;;5.40;2.40;;;;;;;;;;5047986;28;20307;-65
2023/07/06 08:04:47;;;;;;;3.83;2.43;;;;;;;;;;5060431;28;20199;-66
2023/07/06 08:07:16;;;;;;;5.20;2.60;;;;;;;;;;5049194;28;20666;-66
2023/07/06 08:09:45;;;;;;;5.50;2.50;;;;;;;;;;5041810;28;20248;-65
2023/07/06 08:12:13;;;;;;;3.57;2.50;;;;;;;;;;5039362;28;20289;-66
2023/07/06 08:14:42;;;;;;;2.83;2.40;;;;;;;;;;5041326;28;20641;-67
2023/07/06 08:17:10;;;;;;;4.37;2.57;;;;;;;;;;5037328;28;20576;-66
2023/07/06 08:19:38;;;;;;;5.60;2.13;;;;;;;;;;5037141;28;20300;-66
2023/07/06 08:22:26;;;;;;;4.83;2.70;;;;;;;;;;5047669;28;20608;-67
2023/07/06 08:24:55;;;;;;;4.30;2.00;;;;;;;;;;5037167;28;20212;-67
2023/07/06 08:27:23;;;;;;;2.80;2.60;;;;;;;;;;5036995;28;20211;-66
2023/07/06 08:29:51;;;;;;;6.33;2.73;;;;;;;;;;5042284;28;20683;-67
2023/07/06 08:32:21;;;;;;;6.13;2.73;;;;;;;;;;5049767;28;20236;-66
2023/07/06 08:34:50;;;;;;;5.23;2.20;;;;;;;;;;5037502;28;20244;-67
2023/07/06 08:37:18;;;;;;;3.67;2.33;;;;;;;;;;5041084;28;20264;-67
2023/07/06 08:39:46;;;;;;;2.63;2.40;;;;;;;;;;5042971;28;20240;-72
2023/07/06 08:42:18;;;;;;;4.53;2.27;;;;;;;;;;5053332;28;20294;-73
2023/07/06 08:44:50;;;;;;;4.57;2.37;;;;;;;;;;5061193;28;20642;-72
2023/07/06 08:47:18;;;;;;;4.73;2.13;;;;;;;;;;5060431;28;20642;-73
2023/07/06 08:49:46;;;;;;;6.23;2.50;;;;;;;;;;5049763;28;20299;-72
2023/07/06 08:52:15;;;;;;;3.67;2.43;;;;;;;;;;5041132;28;20241;-72
2023/07/06 08:54:46;;;;;;;6.57;2.10;;;;;;;;;;5040753;28;20213;-72
2023/07/06 08:57:17;;;;;;;5.07;2.53;;;;;;;;;;5041088;28;20239;-73
2023/07/06 08:59:46;;;;;;;4.97;2.67;;;;;;;;;;5053960;28;20214;-73
2023/07/06 09:02:16;;;;;;;5.00;2.43;;;;;;;;;;5040797;28;20647;-74
2023/07/06 09:04:46;;;;;;;4.53;2.40;;;;;;;;;;5054629;28;20630;-74
2023/07/06 09:07:15;;;;;;;3.10;2.10;;;;;;;;;;5051541;28;20206;-74
2023/07/06 09:09:44;;;;;;;3.90;2.50;;;;;;;;;;5040504;28;20263;-72
2023/07/06 09:12:13;;;;;;;7.07;2.77;;;;;;;;;;5040697;28;20614;-72
2023/07/06 09:14:43;;;;;;;2.63;2.37;;;;;;;;;;5040819;28;20287;-74
2023/07/06 09:17:16;;;;;;;3.60;2.60;;;;;;;;;;5040860;28;20236;-72
2023/07/06 09:19:44;;;;;;;4.50;2.23;;;;;;;;;;5040290;28;20210;-71
2023/07/06 09:22:13;;;;;;;3.87;2.20;;;;;;;;;;5049776;28;20239;-73
2023/07/06 09:24:45;;;;;;;4.23;2.53;;;;;;;;;;5058915;28;20205;-72
2023/07/06 09:27:17;;;;;;;5.37;2.43;;;;;;;;;;5041280;28;20209;-74
2023/07/06 09:29:56;;;;;;;5.10;2.73;;;;;;;;;;5040479;28;20233;-74
2023/07/06 09:32:24;;;;;;;3.00;2.70;;;;;;;;;;5040230;28;20305;-74
2023/07/06 09:34:54;;;;;;;4.03;2.47;;;;;;;;;;5042196;28;20211;-74
2023/07/06 09:37:22;;;;;;;5.70;2.50;;;;;;;;;;5059761;28;20260;-74
2023/07/06 09:39:57;;;;;;;3.57;2.33;;;;;;;;;;5059857;28;20642;-74
2023/07/06 09:42:43;;;;;;;4.13;2.57;;;;;;;;;;5040376;28;20638;-74
2023/07/06 09:45:21;;;;;;;4.67;2.23;;;;;;;;;;5040277;28;20211;-73
2023/07/06 09:47:52;;;;;;;3.30;2.53;;;;;;;;;;5050829;28;20218;-73
2023/07/06 09:50:21;;;;;;;3.93;2.37;;;;;;;;;;5060113;28;20630;-74
2023/07/06 09:52:50;;;;;;;4.77;2.20;;;;;;;;;;5059653;28;20209;-72
2023/07/06 09:55:20;;;;;;;2.93;2.37;;;;;;;;;;5059826;28;20668;-74
2023/07/06 09:57:49;;;;;;;2.33;2.13;;;;;;;;;;5060012;28;20288;-72
2023/07/06 10:00:20;;;;;;;27.03;15.53;;;;;;;;;;5057685;28;20261;-74
2023/07/06 10:02:54;;;;;;;11.37;8.17;;;;;;;;;;5047391;28;20240;-74
2023/07/06 10:05:27;;;;;;;10.77;7.33;;;;;;;;;;5058814;28;20287;-73
2023/07/06 10:07:58;;;;;;;10.47;8.07;;;;;;;;;;5044561;28;20214;-74
2023/07/06 10:10:32;;;;;;;6.53;4.07;;;;;;;;;;5039917;28;20582;-74
2023/07/06 10:13:03;;;;;;;8.20;5.87;;;;;;;;;;5047300;28;20214;-74
2023/07/06 10:15:34;;;;;;;5.93;4.57;;;;;;;;;;5059508;28;20203;-73
2023/07/06 10:18:06;;;;;;;4.83;3.00;;;;;;;;;;5059111;28;20238;-74
2023/07/06 10:20:37;;;;;;;4.63;3.13;;;;;;;;;;5053261;28;20225;-74
2023/07/06 10:23:18;;;;;;;9.80;2.87;;;;;;;;;;5057397;28;20746;-74
2023/07/06 10:25:50;;;;;;;5.80;2.27;;;;;;;;;;5059199;28;20217;-72
2023/07/06 10:28:23;;;;;;;5.63;3.00;;;;;;;;;;5059381;28;20723;-71
2023/07/06 10:30:57;;;;;;;3.03;2.43;;;;;;;;;;5047902;28;20308;-74
2023/07/06 10:33:28;;;;;;;6.63;3.20;;;;;;;;;;5047355;28;20239;-70
2023/07/06 10:35:58;;;;;;;2.70;2.50;;;;;;;;;;5042901;28;20665;-79
2023/07/06 10:38:26;;;;;;;2.70;2.50;;;;;;;;;;5039016;28;20203;-77
2023/07/06 10:41:14;;;;;;;3.97;2.90;;;;;;;;;;5043561;28;20234;-77
2023/07/06 10:43:43;;;;;;;4.63;3.40;;;;;;;;;;5052640;28;20218;-76
2023/07/06 10:46:25;;;;;;;2.83;2.50;;;;;;;;;;5048283;28;20656;-76
2023/07/06 10:48:57;;;;;;;5.47;3.03;;;;;;;;;;5042180;28;20274;-75
2023/07/06 10:51:25;;;;;;;7.87;2.83;;;;;;;;;;5044229;28;20768;-75
2023/07/06 10:54:06;;;;;;;9.87;2.97;;;;;;;;;;5040495;28;20224;-76
2023/07/06 10:56:36;;;;;;;3.13;2.50;;;;;;;;;;5044692;28;20287;-76
2023/07/06 10:59:04;;;;;;;2.30;2.10;;;;;;;;;;5040217;28;20216;-76
2023/07/06 11:01:37;;;;;;;2.10;1.90;;;;;;;;;;5041264;28;20319;-75
2023/07/06 11:04:20;;;;;;;2.40;2.10;;;;;;;;;;5047342;28;20238;-75
2023/07/06 11:06:53;;;;;;;4.60;2.40;;;;;;;;;;5052612;28;20204;-76
2023/07/06 11:09:22;;;;;;;3.03;2.30;;;;;;;;;;5038298;28;20219;-76
2023/07/06 11:12:10;;;;;;;3.40;2.27;;;;;;;;;;5045506;28;20238;-76
2023/07/06 11:14:39;;;;;;;3.40;2.37;;;;;;;;;;5058366;28;20218;-76
2023/07/06 11:17:14;;;;;;;5.10;2.30;;;;;;;;;;5058225;28;20233;-76
2023/07/06 11:19:44;;;;;;;2.30;2.10;;;;;;;;;;5058373;28;20237;-76
2023/07/06 11:22:17;;;;;;;3.57;1.93;;;;;;;;;;5058446;28;20210;-76
2023/07/06 11:24:48;;;;;;;4.03;2.17;;;;;;;;;;5058455;28;20733;-75
2023/07/06 11:27:29;;;;;;;3.10;2.23;;;;;;;;;;5058497;28;20214;-76
2023/07/06 11:30:03;;;;;;;5.07;2.57;;;;;;;;;;5050411;28;20249;-76
2023/07/06 11:32:33;;;;;;;3.30;2.23;;;;;;;;;;5057886;28;20267;-77
2023/07/06 11:35:06;;;;;;;2.63;1.97;;;;;;;;;;5058398;28;20258;-77
2023/07/06 11:37:42;;;;;;;3.60;2.63;;;;;;;;;;5057884;28;20314;-77
2023/07/06 11:40:33;;;;;;;2.30;1.80;;;;;;;;;;5057257;28;20227;-75
2023/07/06 11:43:06;;;;;;;4.77;2.10;;;;;;;;;;5038132;28;20294;-75
2023/07/06 11:45:39;;;;;;;3.23;2.07;;;;;;;;;;5038240;28;20207;-75
2023/07/06 11:48:14;;;;;;;1.97;1.73;;;;;;;;;;5037930;28;20290;-74
2023/07/06 11:50:43;;;;;;;4.70;1.80;;;;;;;;;;5037992;28;20265;-75
2023/07/06 11:53:29;;;;;;;2.60;1.90;;;;;;;;;;5037563;28;20226;-75
2023/07/06 11:56:05;;;;;;;2.57;1.60;;;;;;;;;;5046581;28;20207;-74
2023/07/06 11:58:53;;;;;;;3.20;2.10;;;;;;;;;;5057843;28;20234;-76
2023/07/06 12:01:32;;;;;;;3.40;1.90;;;;;;;;;;5037962;28;20227;-77
2023/07/06 12:04:00;;;;;;;2.93;1.90;;;;;;;;;;5045920;28;20293;-78
2023/07/06 12:06:28;;;;;;;2.80;2.10;;;;;;;;;;5056085;28;20293;-77
2023/07/06 12:09:00;;;;;;;2.73;2.00;;;;;;;;;;5037767;28;20203;-77
2023/07/06 12:11:29;;;;;;;2.60;1.93;;;;;;;;;;5037183;28;20241;-75
2023/07/06 12:13:58;;;;;;;2.37;1.90;;;;;;;;;;5038014;28;20214;-79
2023/07/06 12:16:27;;;;;;;3.43;2.03;;;;;;;;;;5037480;28;20275;-77
2023/07/06 12:18:58;;;;;;;1.80;1.70;;;;;;;;;;5037775;28;20223;-76
2023/07/06 12:21:28;;;;;;;2.37;1.67;;;;;;;;;;5037466;28;20231;-76
2023/07/06 12:24:00;;;;;;;1.90;1.73;;;;;;;;;;5037737;28;20212;-76
2023/07/06 12:26:29;;;;;;;1.93;1.60;;;;;;;;;;5037459;28;20220;-76
2023/07/06 12:28:57;;;;;;;4.67;1.80;;;;;;;;;;5049704;28;20283;-76
2023/07/06 12:31:26;;;;;;;4.10;1.70;;;;;;;;;;5046995;28;20332;-76
2023/07/06 12:33:55;;;;;;;1.57;1.47;;;;;;;;;;5037195;28;20244;-77
2023/07/06 12:36:26;;;;;;;2.17;1.97;;;;;;;;;;5037195;28;20213;-76
2023/07/06 12:38:54;;;;;;;2.30;2.10;;;;;;;;;;5037223;28;20315;-76
2023/07/06 12:41:23;;;;;;;2.10;1.53;;;;;;;;;;5040415;28;20227;-77
2023/07/06 12:43:53;;;;;;;2.63;1.90;;;;;;;;;;5037144;28;20583;-70
2023/07/06 12:46:22;;;;;;;2.97;2.00;;;;;;;;;;5037692;28;20208;-72
2023/07/06 12:48:52;;;;;;;3.10;1.57;;;;;;;;;;5068885;28;20192;-70
2023/07/06 12:51:23;;;;;;;1.90;1.70;;;;;;;;;;5048859;28;20233;-70
2023/07/06 12:53:51;;;;;;;3.20;2.10;;;;;;;;;;5037281;28;20249;-70
2023/07/06 12:56:20;;;;;;;2.17;1.60;;;;;;;;;;5037274;28;20672;-71
2023/07/06 12:58:57;;;;;;;2.10;1.80;;;;;;;;;;5038504;28;20241;-71
2023/07/06 13:01:31;;;;;;;2.67;1.80;;;;;;;;;;5040200;28;20224;-71
2023/07/06 13:04:07;;;;;;;3.87;2.03;;;;;;;;;;5037318;28;20664;-71
2023/07/06 13:06:41;;;;;;;1.70;1.60;;;;;;;;;;5037220;28;20205;-71
2023/07/06 13:09:09;;;;;;;2.30;1.70;;;;;;;;;;5036760;28;20212;-71
2023/07/06 13:11:38;;;;;;;3.07;1.60;;;;;;;;;;5037280;28;20235;-71
2023/07/06 13:14:08;;;;;;;1.67;1.57;;;;;;;;;;5037211;28;20227;-71
2023/07/06 13:16:39;;;;;;;1.90;1.70;;;;;;;;;;5037008;28;20218;-71
2023/07/06 13:19:07;;;;;;;1.70;1.60;;;;;;;;;;5037093;28;20230;-71
2023/07/06 13:21:37;;;;;;;4.13;1.93;;;;;;;;;;5038123;28;20319;-72
2023/07/06 13:24:06;;;;;;;2.50;1.90;;;;;;;;;;5040579;28;20219;-71
2023/07/06 13:26:35;;;;;;;1.77;1.67;;;;;;;;;;5040792;28;20207;-71
2023/07/06 13:29:02;;;;;;;3.80;1.80;;;;;;;;;;5051406;28;20287;-71
2023/07/06 13:31:32;;;;;;;2.40;1.60;;;;;;;;;;5046551;28;20326;-71
2023/07/06 13:34:19;;;;;;;2.83;1.90;;;;;;;;;;5040393;28;20218;-72
2023/07/06 13:36:47;;;;;;;3.30;1.70;;;;;;;;;;5040440;28;20737;-72
2023/07/06 13:39:15;;;;;;;3.73;2.53;;;;;;;;;;5040322;28;20225;-72
2023/07/06 13:41:43;;;;;;;2.67;1.88;;;;;;;;;;5040672;28;20253;-73
2023/07/06 13:44:10;;;;;;;1.90;1.67;;;;;;;;;;5040561;28;20203;-72
2023/07/06 13:46:40;;;;;;;2.00;1.60;;;;;;;;;;5040513;28;20239;-72
2023/07/06 13:49:08;;;;;;;2.80;1.50;;;;;;;;;;5040392;28;20286;-72
2023/07/06 13:51:36;;;;;;;2.07;1.80;;;;;;;;;;5040164;28;20325;-72
2023/07/06 13:54:05;;;;;;;3.43;2.20;;;;;;;;;;5040081;28;20664;-72
2023/07/06 13:56:33;;;;;;;4.17;1.87;;;;;;;;;;5039956;28;20310;-72
2023/07/06 13:59:02;;;;;;;3.73;2.17;;;;;;;;;;5042740;28;20782;-72
2023/07/06 14:01:30;;;;;;;3.03;1.70;;;;;;;;;;5039930;28;20242;-72
2023/07/06 14:04:02;;;;;;;4.53;1.80;;;;;;;;;;5040049;28;20222;-72
2023/07/06 14:06:30;;;;;;;2.37;1.70;;;;;;;;;;5039979;28;20216;-72
2023/07/06 14:08:58;;;;;;;3.50;2.00;;;;;;;;;;5039484;28;20208;-72
2023/07/06 14:11:26;;;;;;;5.03;1.73;;;;;;;;;;5039704;28;20740;-72
2023/07/06 14:13:54;;;;;;;2.27;1.70;;;;;;;;;;5039856;28;20210;-72
2023/07/06 14:16:22;;;;;;;2.30;1.92;;;;;;;;;;5039874;28;20203;-72
2023/07/06 14:18:51;;;;;;;3.55;1.77;;;;;;;;;;5039702;28;20238;-72
2023/07/06 14:21:22;;;;;;;4.40;1.90;;;;;;;;;;5039595;28;20235;-72
2023/07/06 14:23:51;;;;;;;2.85;1.63;;;;;;;;;;5039457;28;20756;-72
2023/07/06 14:26:19;;;;;;;1.67;1.48;;;;;;;;;;5039731;28;20222;-72
2023/07/06 14:28:49;;;;;;;2.85;1.90;;;;;;;;;;5050225;28;20754;-72
2023/07/06 14:31:17;;;;;;;2.47;1.77;;;;;;;;;;5049904;28;20225;-72
2023/07/06 14:33:45;;;;;;;3.87;1.90;;;;;;;;;;5038696;28;20245;-72
2023/07/06 14:36:14;;;;;;;4.87;2.10;;;;;;;;;;5039430;28;20210;-72
2023/07/06 14:38:43;;;;;;;3.67;1.60;;;;;;;;;;5038824;28;20319;-72
2023/07/06 14:41:11;;;;;;;2.77;2.10;;;;;;;;;;5041869;28;20258;-72
2023/07/06 14:43:39;;;;;;;3.27;2.00;;;;;;;;;;5039402;28;20292;-72
2023/07/06 14:46:07;;;;;;;4.17;1.77;;;;;;;;;;5038970;28;20212;-72
2023/07/06 14:48:34;;;;;;;2.10;1.90;;;;;;;;;;5039284;28;20201;-72
2023/07/06 14:51:04;;;;;;;3.47;2.08;;;;;;;;;;5055281;28;20275;-75
2023/07/06 14:53:32;;;;;;;3.83;1.80;;;;;;;;;;5066471;28;20198;-76
2023/07/06 14:56:02;;;;;;;2.03;1.70;;;;;;;;;;5065527;28;20194;-75
2023/07/06 14:58:30;;;;;;;2.53;2.00;;;;;;;;;;5067657;28;20201;-76
2023/07/06 15:00:57;;;;;;;6.30;1.90;;;;;;;;;;5069247;28;20302;-74